Time;durP1;ratioP1;P1;durP2;ratioP2;P2;SDS_P1;SDS_P2;PMS_P1;PMS_P2;Temp;Humidity;BMP_temperature;BMP_pressure;BME280_temperature;BME280_humidity;BME280_pressure;Samples;Min_cycle;Max_cycle;Signal;HPM_P1;HPM_P2
2023/10/02 00:02:14;;;;;;;7.63;4.10;;;20.10;91.80;;;;;;5031197;28;20024;-84
2023/10/02 00:05:05;;;;;;;10.10;4.10;;;20.00;91.80;;;;;;5074157;28;20524;-84
2023/10/02 00:07:37;;;;;;;8.63;3.90;;;21.10;91.90;;;;;;5056445;28;20467;-84
2023/10/02 00:10:24;;;;;;;7.68;3.63;;;20.30;91.70;;;;;;5056115;28;20397;-84
2023/10/02 00:12:59;;;;;;;8.75;4.00;;;20.10;91.60;;;;;;5073492;28;20023;-84
2023/10/02 00:15:36;;;;;;;8.32;3.88;;;20.10;91.60;;;;;;5056641;28;20112;-83
2023/10/02 00:18:04;;;;;;;7.82;3.40;;;20.10;91.60;;;;;;5090472;28;20416;-84
2023/10/02 00:20:32;;;;;;;8.85;4.15;;;20.00;91.60;;;;;;5089933;28;20025;-82
2023/10/02 00:23:04;;;;;;;8.85;4.25;;;21.20;91.90;;;;;;5056133;28;20033;-84
2023/10/02 00:25:55;;;;;;;8.85;4.43;;;20.10;91.70;;;;;;5090190;28;20465;-84
2023/10/02 00:28:37;;;;;;;9.38;3.78;;;20.30;91.80;;;;;;5056167;28;20466;-82
2023/10/02 00:31:21;;;;;;;10.15;3.88;;;20.30;91.80;;;;;;5090119;28;20114;-83
2023/10/02 00:33:50;;;;;;;8.73;4.20;;;20.10;91.70;;;;;;5056330;28;20458;-86
2023/10/02 00:36:34;;;;;;;7.80;3.92;;;20.00;91.70;;;;;;5090317;28;20017;-83
2023/10/02 00:42:18;;;;;;;7.70;3.88;;;20.10;91.80;;;;;;5050804;28;20020;-82
2023/10/02 00:44:54;;;;;;;8.27;4.00;;;20.00;91.80;;;;;;5089799;28;20017;-84
2023/10/02 00:47:42;;;;;;;8.00;3.60;;;20.20;91.80;;;;;;5056604;28;20058;-83
2023/10/02 00:50:22;;;;;;;7.35;3.63;;;20.00;91.90;;;;;;5056513;28;20026;-83
2023/10/02 00:52:56;;;;;;;7.82;3.72;;;20.10;91.90;;;;;;5073126;28;20016;-83
2023/10/02 00:55:44;;;;;;;7.65;3.50;;;20.10;91.90;;;;;;5056528;28;20021;-84
2023/10/02 00:58:13;;;;;;;7.22;3.75;;;20.10;91.90;;;;;;5054944;28;20023;-83
2023/10/02 01:00:52;;;;;;;7.75;3.58;;;20.10;91.80;;;;;;5056404;28;20082;-83
2023/10/02 01:04:06;;;;;;;8.45;4.00;;;20.10;91.80;;;;;;5056239;28;20040;-83
2023/10/02 01:06:16;;;;;;;9.10;4.30;;;20.10;91.70;;;;;;5072707;28;20021;-83
2023/10/02 01:08:49;;;;;;;8.70;4.40;;;20.20;91.70;;;;;;5090022;28;20498;-84
2023/10/02 01:11:22;;;;;;;7.97;3.38;;;20.10;91.70;;;;;;5089538;28;20493;-83
2023/10/02 01:13:57;;;;;;;8.80;4.05;;;20.00;91.70;;;;;;5089781;28;20024;-84
2023/10/02 01:16:50;;;;;;;7.35;3.70;;;20.10;91.70;;;;;;5089798;28;20028;-83
2023/10/02 01:19:52;;;;;;;7.80;3.78;;;20.50;91.80;;;;;;5056519;28;20017;-84
2023/10/02 01:22:26;;;;;;;7.38;3.33;;;20.10;91.70;;;;;;5072459;28;20032;-84
2023/10/02 01:25:12;;;;;;;9.07;3.45;;;20.10;91.80;;;;;;5089839;28;20023;-84
2023/10/02 01:27:47;;;;;;;7.55;3.40;;;20.20;91.80;;;;;;5055656;28;20044;-82
2023/10/02 01:30:24;;;;;;;8.77;3.70;;;20.00;91.80;;;;;;5055892;28;20394;-83
2023/10/02 01:35:50;;;;;;;7.80;3.72;;;20.00;91.80;;;;;;5078027;28;20070;-83
2023/10/02 01:38:21;;;;;;;8.02;3.72;;;20.00;91.80;;;;;;5059596;28;20047;-83
2023/10/02 01:41:14;;;;;;;7.32;3.72;;;20.10;91.80;;;;;;5075866;28;20478;-83
2023/10/02 01:43:49;;;;;;;6.97;3.47;;;20.00;91.90;;;;;;5090700;28;20032;-82
2023/10/02 01:46:23;;;;;;;7.47;3.55;;;20.10;91.90;;;;;;5060092;28;20025;-83
2023/10/02 01:48:55;;;;;;;8.23;3.83;;;20.10;91.90;;;;;;5093188;28;20021;-83
2023/10/02 01:51:26;;;;;;;7.60;3.65;;;19.90;91.90;;;;;;5093412;28;20029;-82
2023/10/02 01:54:11;;;;;;;;;;;;;;;;;;;;;
2023/10/02 01:56:45;;;;;;;9.95;4.40;;;20.20;91.70;;;;;;5077279;28;20020;-83
2023/10/02 01:59:24;;;;;;;7.65;3.92;;;20.00;91.50;;;;;;5059784;28;20398;-83
2023/10/02 02:01:56;;;;;;;7.60;3.88;;;20.10;91.50;;;;;;5093354;28;20060;-83
2023/10/02 02:04:32;;;;;;;7.35;3.60;;;20.00;91.60;;;;;;5059606;28;20490;-83
2023/10/02 02:07:07;;;;;;;7.68;3.47;;;20.10;91.60;;;;;;5092996;28;20086;-83
2023/10/02 02:10:02;;;;;;;8.65;4.13;;;20.10;91.70;;;;;;5059224;28;20030;-82
2023/10/02 02:12:44;;;;;;;8.40;3.85;;;20.10;91.70;;;;;;5090348;28;20025;-83
2023/10/02 02:15:20;;;;;;;7.35;3.60;;;20.00;91.70;;;;;;5093030;28;20013;-85
2023/10/02 02:17:53;;;;;;;7.80;3.50;;;20.00;91.70;;;;;;5058879;28;20020;-84
2023/10/02 02:20:43;;;;;;;7.70;3.67;;;20.00;91.80;;;;;;5092046;28;20024;-83
2023/10/02 02:23:14;;;;;;;7.88;3.53;;;20.00;91.80;;;;;;5077003;28;20032;-82
2023/10/02 02:25:48;;;;;;;7.25;3.50;;;20.20;91.90;;;;;;5092458;28;20029;-83
2023/10/02 02:28:21;;;;;;;6.38;3.38;;;20.00;91.80;;;;;;5058788;28;20021;-83
2023/10/02 02:30:47;;;;;;;6.75;3.00;;;20.70;92.00;;;;;;5058810;28;20028;-84
2023/10/02 02:33:16;;;;;;;7.70;3.72;;;20.00;91.80;;;;;;5092275;28;20020;-84
2023/10/02 02:35:44;;;;;;;8.15;3.72;;;20.00;91.90;;;;;;5058653;28;20027;-84
2023/10/02 02:38:25;;;;;;;7.95;3.67;;;20.00;91.90;;;;;;5092175;28;20024;-83
2023/10/02 02:41:05;;;;;;;7.78;3.33;;;19.90;91.90;;;;;;5058684;28;20111;-83
2023/10/02 02:43:33;;;;;;;8.30;3.30;;;19.90;91.90;;;;;;5091948;28;20025;-83
2023/10/02 02:46:04;;;;;;;7.22;3.47;;;20.20;92.00;;;;;;5092053;28;20028;-84
2023/10/02 02:48:44;;;;;;;6.15;3.13;;;19.90;91.90;;;;;;5058228;28;20526;-84
2023/10/02 02:51:22;;;;;;;7.10;3.20;;;20.00;91.90;;;;;;5087116;28;20029;-84
2023/10/02 02:53:51;;;;;;;7.53;3.75;;;20.10;91.90;;;;;;5055245;28;20037;-84
2023/10/02 02:56:22;;;;;;;8.20;3.60;;;20.10;91.80;;;;;;5041999;28;20099;-83
2023/10/02 02:58:53;;;;;;;;;;;20.00;91.70;;;;;;5041874;28;20033;-83
2023/10/02 03:01:29;;;;;;;7.72;3.28;;;20.00;91.70;;;;;;5055152;28;19955;-84
2023/10/02 03:04:11;;;;;;;6.82;3.53;;;20.10;91.80;;;;;;5054936;28;20025;-83
2023/10/02 03:06:42;;;;;;;7.88;3.53;;;20.00;91.80;;;;;;5055174;28;20028;-84
2023/10/02 03:09:23;;;;;;;7.97;3.83;;;20.00;91.80;;;;;;5054733;28;20024;-83
2023/10/02 03:11:52;;;;;;;6.47;3.00;;;20.00;91.80;;;;;;5055225;28;20025;-84
2023/10/02 03:14:28;;;;;;;7.50;3.42;;;20.00;91.80;;;;;;5054588;28;20506;-82
2023/10/02 03:20:30;;;;;;;7.63;3.40;;;20.00;91.90;;;;;;5013672;28;20045;-83
2023/10/02 03:23:11;;;;;;;6.82;3.13;;;20.00;91.90;;;;;;5013423;28;20080;-83
2023/10/02 03:25:43;;;;;;;7.90;3.45;;;20.00;91.90;;;;;;5031804;28;20090;-83
2023/10/02 03:28:30;;;;;;;8.20;3.58;;;20.00;91.90;;;;;;5054019;28;20534;-84
2023/10/02 03:31:16;;;;;;;6.35;3.17;;;20.00;91.90;;;;;;5054355;28;20467;-83
2023/10/02 03:33:43;;;;;;;7.63;3.35;;;19.70;91.90;;;;;;5053885;28;20028;-84
2023/10/02 03:36:18;;;;;;;7.65;3.92;;;19.90;91.90;;;;;;5054406;28;20013;-85
2023/10/02 03:38:54;;;;;;;7.10;3.13;;;20.00;92.00;;;;;;5054490;28;20017;-84
2023/10/02 03:41:44;;;;;;;7.55;3.75;;;20.30;92.00;;;;;;5054059;28;20020;-83
2023/10/02 03:44:11;;;;;;;8.00;3.67;;;20.00;92.00;;;;;;5054962;28;20017;-83
2023/10/02 03:46:40;;;;;;;8.02;3.40;;;20.00;91.90;;;;;;5054385;28;20480;-84
2023/10/02 03:49:18;;;;;;;7.40;3.70;;;20.00;91.70;;;;;;5053668;28;20386;-84
2023/10/02 03:51:51;;;;;;;7.95;3.88;;;20.00;91.70;;;;;;5054347;28;20079;-84
2023/10/02 03:54:22;;;;;;;6.85;3.20;;;20.00;91.60;;;;;;5052956;28;20020;-84
2023/10/02 03:56:49;;;;;;;;;;;21.30;91.90;;;;;;5053722;28;20021;-84
2023/10/02 03:59:52;;;;;;;6.82;3.40;;;19.90;91.60;;;;;;5053206;28;19912;-84
2023/10/02 04:02:39;;;;;;;7.10;3.58;;;20.00;91.70;;;;;;5053366;28;20041;-83
2023/10/02 04:05:10;;;;;;;7.57;3.83;;;19.80;91.70;;;;;;5053411;28;20539;-83
2023/10/02 04:07:36;;;;;;;7.03;3.20;;;20.00;91.80;;;;;;5053169;28;20028;-83
2023/10/02 04:10:51;;;;;;;7.32;3.67;;;20.00;91.80;;;;;;5053371;28;20036;-83
2023/10/02 04:13:35;;;;;;;6.43;2.97;;;19.90;91.80;;;;;;5054217;28;20025;-84
2023/10/02 04:18:58;;;;;;;7.00;3.33;;;20.00;91.90;;;;;;5054444;28;20032;-85
2023/10/02 04:21:28;;;;;;;6.68;3.40;;;19.90;91.90;;;;;;5053231;28;20064;-82
2023/10/02 04:23:58;;;;;;;6.63;3.45;;;19.90;91.90;;;;;;5053111;28;20088;-83
2023/10/02 04:26:33;;;;;;;6.95;3.47;;;20.50;92.10;;;;;;5053054;28;20047;-82
2023/10/02 04:29:15;;;;;;;7.22;3.35;;;20.00;91.90;;;;;;5053551;28;20043;-83
2023/10/02 04:31:44;;;;;;;7.30;3.33;;;19.80;91.90;;;;;;5053100;28;20052;-83
2023/10/02 04:36:48;;;;;;;6.70;3.30;;;19.90;92.00;;;;;;5053950;28;20028;-82
2023/10/02 04:42:11;;;;;;;6.40;2.95;;;19.90;92.00;;;;;;5053810;28;20032;-83
2023/10/02 04:44:44;;;;;;;7.63;3.90;;;20.00;91.90;;;;;;5052901;28;20454;-84
2023/10/02 04:47:19;;;;;;;6.95;3.47;;;20.00;91.90;;;;;;5052972;28;20109;-83
2023/10/02 04:52:53;;;;;;;7.07;3.20;;;20.00;91.80;;;;;;5071347;28;20024;-82
2023/10/02 04:55:15;;;;;;;7.10;3.13;;;20.00;91.80;;;;;;5067248;28;20028;-85
2023/10/02 04:57:42;;;;;;;6.80;3.42;;;20.00;91.80;;;;;;5034530;28;20021;-82
2023/10/02 05:00:26;;;;;;;6.85;3.40;;;20.00;91.80;;;;;;5033142;28;20750;-83
2023/10/02 05:03:09;;;;;;;6.45;3.35;;;19.90;92.00;;;;;;5032374;28;20021;-83
2023/10/02 05:10:01;;;;;;;;;;;;;;;;;;;;;
2023/10/02 05:12:44;;;;;;;6.63;3.08;;;19.90;91.90;;;;;;5070434;28;20020;-84
2023/10/02 05:15:20;;;;;;;6.53;3.33;;;19.90;91.90;;;;;;5070886;28;20016;-82
2023/10/02 05:17:47;;;;;;;6.72;3.15;;;19.90;91.90;;;;;;5070816;28;20016;-83
2023/10/02 05:20:15;;;;;;;7.13;3.40;;;20.00;92.00;;;;;;5069784;28;20029;-83
2023/10/02 05:22:42;;;;;;;6.40;3.22;;;20.00;92.00;;;;;;5070330;28;20039;-82
2023/10/02 05:25:18;;;;;;;6.35;2.90;;;19.80;91.90;;;;;;5069866;28;20048;-83
2023/10/02 05:27:47;;;;;;;6.60;3.00;;;19.90;91.90;;;;;;5069309;28;20027;-82
2023/10/02 05:30:12;;;;;;;6.53;3.00;;;19.90;92.00;;;;;;5053983;28;20028;-82
2023/10/02 05:32:39;;;;;;;6.45;2.95;;;19.90;92.00;;;;;;5052170;28;20545;-80
2023/10/02 05:37:32;;;;;;;7.43;3.30;;;19.90;92.00;;;;;;5069843;28;20071;-80
2023/10/02 06:01:23;;;;;;;7.50;3.38;;;19.90;91.80;;;;;;5066502;28;20113;-84
2023/10/02 06:03:56;;;;;;;7.47;3.60;;;19.90;91.80;;;;;;5069074;28;20040;-84
2023/10/02 06:06:23;;;;;;;8.02;3.65;;;19.90;91.80;;;;;;5068612;28;20028;-84
2023/10/02 06:14:25;;;;;;;7.93;3.30;;;19.90;91.90;;;;;;5074965;28;20314;-84
2023/10/02 06:16:52;;;;;;;6.82;3.50;;;19.90;91.80;;;;;;5073356;28;20566;-85
2023/10/02 06:19:17;;;;;;;7.85;3.72;;;19.90;91.90;;;;;;5076512;28;20753;-84
2023/10/02 06:21:46;;;;;;;6.65;3.38;;;19.90;91.80;;;;;;5076995;28;20028;-84
2023/10/02 06:24:14;;;;;;;7.03;3.65;;;19.90;91.90;;;;;;5077068;28;20020;-85
2023/10/02 06:26:57;;;;;;;6.55;3.33;;;19.90;91.80;;;;;;5078301;28;20063;-84
2023/10/02 06:29:32;;;;;;;7.35;3.70;;;19.90;91.90;;;;;;5076653;28;20076;-84
2023/10/02 06:31:58;;;;;;;7.40;3.78;;;19.90;91.90;;;;;;5076570;28;20760;-85
2023/10/02 06:34:25;;;;;;;7.65;3.50;;;19.90;91.90;;;;;;5076723;28;20044;-84
2023/10/02 06:37:02;;;;;;;7.57;3.50;;;19.90;91.90;;;;;;5076563;28;20092;-84
2023/10/02 06:39:29;;;;;;;7.07;3.60;;;19.90;91.80;;;;;;5076951;28;20024;-84
2023/10/02 06:42:04;;;;;;;7.47;3.60;;;19.90;91.80;;;;;;5077776;28;20027;-84
2023/10/02 06:44:52;;;;;;;7.20;3.50;;;20.00;91.70;;;;;;5076559;28;20024;-85
2023/10/02 06:47:18;;;;;;;7.97;3.75;;;19.90;91.70;;;;;;5075241;28;20054;-84
2023/10/02 06:49:44;;;;;;;6.65;3.30;;;20.00;91.80;;;;;;5076057;28;20059;-85
2023/10/02 06:52:16;;;;;;;6.65;3.38;;;20.00;91.70;;;;;;5075889;28;20484;-85
2023/10/02 06:54:49;;;;;;;6.65;3.22;;;20.00;91.70;;;;;;5076921;28;20104;-84
2023/10/02 06:57:20;;;;;;;6.22;3.08;;;20.00;91.80;;;;;;5076009;28;20119;-85
2023/10/02 06:59:53;;;;;;;7.00;3.20;;;19.90;91.70;;;;;;5083481;28;20043;-84
2023/10/02 07:02:26;;;;;;;6.63;3.03;;;20.00;91.80;;;;;;5096035;28;20095;-84
2023/10/02 07:04:56;;;;;;;7.53;3.53;;;20.00;91.80;;;;;;5096330;28;20028;-84
2023/10/02 07:07:26;;;;;;;7.05;3.20;;;19.90;91.80;;;;;;5096440;28;20024;-85
2023/10/02 07:10:07;;;;;;;6.97;3.60;;;19.90;92.00;;;;;;5096011;28;20028;-84
2023/10/02 07:12:40;;;;;;;6.90;3.20;;;20.10;91.80;;;;;;5095636;28;20054;-84
2023/10/02 07:15:13;;;;;;;7.45;3.47;;;20.00;91.80;;;;;;5096730;28;20028;-85
2023/10/02 07:17:48;;;;;;;6.05;3.15;;;20.00;91.80;;;;;;5095500;28;20031;-85
2023/10/02 07:20:20;;;;;;;7.45;3.50;;;20.00;91.80;;;;;;5095334;28;20035;-84
2023/10/02 07:22:46;;;;;;;8.85;3.75;;;20.00;91.70;;;;;;5095059;28;20440;-85
2023/10/02 07:25:15;;;;;;;9.00;3.53;;;20.00;91.60;;;;;;5096884;28;20047;-86
2023/10/02 07:27:42;;;;;;;13.05;3.95;;;20.00;91.70;;;;;;5098251;28;20574;-86
2023/10/02 07:30:09;;;;;;;12.93;4.30;;;20.00;91.40;;;;;;5098878;28;20115;-86
2023/10/02 07:32:34;;;;;;;12.88;4.38;;;20.10;91.30;;;;;;5099996;28;20016;-86
2023/10/02 07:35:09;;;;;;;13.95;4.70;;;20.20;91.20;;;;;;5099016;28;20082;-86
2023/10/02 07:37:36;;;;;;;13.05;4.68;;;20.20;91.10;;;;;;5099009;28;20012;-86
2023/10/02 07:40:02;;;;;;;11.38;4.53;;;20.30;91.00;;;;;;5099027;28;20030;-86
2023/10/02 07:42:31;;;;;;;10.18;4.38;;;20.30;91.00;;;;;;5098681;28;20028;-85
2023/10/02 07:45:21;;;;;;;11.52;4.57;;;20.30;90.90;;;;;;5098666;28;20127;-86
2023/10/02 07:50:43;;;;;;;10.98;3.97;;;20.30;90.80;;;;;;5092390;28;20562;-86
2023/10/02 07:53:10;;;;;;;12.75;4.50;;;20.40;90.90;;;;;;5099642;28;20073;-86
2023/10/02 07:55:46;;;;;;;9.60;4.18;;;20.40;90.80;;;;;;5100121;28;20158;-86
2023/10/02 07:58:13;;;;;;;9.10;4.00;;;20.50;90.90;;;;;;5097086;28;20024;-87
2023/10/02 08:00:43;;;;;;;13.55;4.63;;;20.40;90.80;;;;;;5100728;28;20123;-86
2023/10/02 08:03:31;;;;;;;12.13;4.38;;;20.40;90.90;;;;;;5099935;28;20028;-86
2023/10/02 08:06:20;;;;;;;9.00;4.13;;;20.40;90.90;;;;;;5098843;28;20081;-86
2023/10/02 08:08:47;;;;;;;9.25;4.47;;;20.40;90.90;;;;;;5100154;28;20026;-86
2023/10/02 08:11:12;;;;;;;11.68;4.43;;;20.40;90.90;;;;;;5100501;28;20028;-86
2023/10/02 08:13:48;;;;;;;10.80;4.20;;;20.40;90.80;;;;;;5092852;28;20046;-83
2023/10/02 08:16:15;;;;;;;9.00;4.53;;;20.40;90.80;;;;;;5091796;28;20016;-86
2023/10/02 08:19:05;;;;;;;9.60;4.40;;;20.50;90.80;;;;;;5099603;28;20047;-86
2023/10/02 08:21:46;;;;;;;11.43;4.70;;;20.50;90.80;;;;;;5101480;28;20026;-86
2023/10/02 08:24:11;;;;;;;;;;;20.50;90.80;;;;;;5101414;28;20507;-86
2023/10/02 08:26:39;;;;;;;9.30;4.38;;;20.40;90.80;;;;;;5098054;28;19903;-86
2023/10/02 08:29:10;;;;;;;11.35;4.45;;;20.60;90.90;;;;;;5098460;28;20045;-86
2023/10/02 08:31:43;;;;;;;10.02;4.30;;;20.60;90.80;;;;;;5097994;28;20111;-87
2023/10/02 08:34:12;;;;;;;9.55;4.45;;;20.60;90.80;;;;;;5097796;28;20024;-87
2023/10/02 08:36:38;;;;;;;7.70;4.10;;;20.70;90.70;;;;;;5097719;28;20079;-87
2023/10/02 08:39:04;;;;;;;9.02;4.13;;;20.70;90.70;;;;;;5098866;28;20059;-86
2023/10/02 08:41:30;;;;;;;9.70;4.40;;;20.70;90.60;;;;;;5098838;28;20024;-86
2023/10/02 08:44:00;;;;;;;8.80;4.22;;;20.70;90.60;;;;;;5097617;28;20038;-85
2023/10/02 08:46:26;;;;;;;8.95;3.90;;;20.70;90.60;;;;;;5098712;28;20020;-85
2023/10/02 08:48:54;;;;;;;9.07;4.47;;;20.70;90.60;;;;;;5097999;28;20024;-86
2023/10/02 08:51:32;;;;;;;7.85;4.13;;;20.70;90.60;;;;;;5099035;28;20088;-86
2023/10/02 08:54:00;;;;;;;9.88;4.63;;;20.70;90.70;;;;;;5101824;28;20024;-86
2023/10/02 08:56:40;;;;;;;10.65;4.82;;;20.70;90.70;;;;;;5100767;28;20043;-85
2023/10/02 08:59:17;;;;;;;11.60;4.68;;;20.70;90.70;;;;;;5099206;28;20020;-86
2023/10/02 09:01:47;;;;;;;9.02;4.43;;;20.70;90.40;;;;;;5099640;28;20054;-86
2023/10/02 09:04:22;;;;;;;9.88;4.43;;;20.70;90.40;;;;;;5098452;28;20028;-87
2023/10/02 09:06:58;;;;;;;10.50;4.88;;;20.80;90.50;;;;;;5098122;28;20024;-87
2023/10/02 09:09:27;;;;;;;11.07;5.15;;;20.80;90.50;;;;;;5098330;28;20020;-87
2023/10/02 09:11:59;;;;;;;10.10;4.40;;;20.80;90.40;;;;;;5097917;28;20042;-87
2023/10/02 09:20:03;;;;;;;10.05;4.95;;;20.90;90.50;;;;;;5063980;28;20517;-86
2023/10/02 09:22:29;;;;;;;11.77;4.47;;;20.90;90.50;;;;;;5091968;28;20032;-83
2023/10/02 09:25:26;;;;;;;10.65;4.78;;;20.90;90.50;;;;;;5080988;28;20048;-86
2023/10/02 09:27:57;;;;;;;8.57;4.53;;;21.00;90.50;;;;;;5079100;28;20029;-87
2023/10/02 09:33:04;;;;;;;10.30;4.35;;;21.00;90.40;;;;;;5100420;28;20056;-88
2023/10/02 09:35:32;;;;;;;8.82;4.78;;;21.00;90.40;;;;;;5095930;28;20081;-86
2023/10/02 09:38:06;;;;;;;9.55;4.80;;;21.00;90.30;;;;;;5071119;28;20028;-87
2023/10/02 09:40:56;;;;;;;9.13;4.63;;;21.00;90.30;;;;;;5072607;28;20021;-87
2023/10/02 09:43:33;;;;;;;9.43;4.32;;;21.00;90.30;;;;;;5071213;28;20024;-87
2023/10/02 09:46:06;;;;;;;9.02;4.60;;;21.10;90.30;;;;;;5071037;28;20044;-87
2023/10/02 09:48:53;;;;;;;8.88;4.63;;;21.00;90.30;;;;;;5070630;28;20032;-87
2023/10/02 09:51:30;;;;;;;9.77;4.75;;;21.00;90.30;;;;;;5071438;28;20048;-86
2023/10/02 09:54:06;;;;;;;8.15;4.38;;;21.00;90.40;;;;;;5094919;28;20390;-85
2023/10/02 09:56:41;;;;;;;8.55;4.30;;;21.10;90.50;;;;;;5088512;28;20046;-86
2023/10/02 09:59:17;;;;;;;8.98;4.10;;;21.00;90.50;;;;;;5085716;28;20022;-86
2023/10/02 10:02:08;;;;;;;8.48;4.32;;;21.00;90.50;;;;;;5092372;28;20116;-87
2023/10/02 10:05:46;;;;;;;8.68;4.40;;;21.00;90.50;;;;;;5095420;28;20024;-87
2023/10/02 10:07:59;;;;;;;9.25;4.38;;;20.90;90.60;;;;;;5087784;28;20058;-87
2023/10/02 10:10:46;;;;;;;9.43;4.60;;;20.90;90.60;;;;;;5094912;28;20031;-86
2023/10/02 10:13:32;;;;;;;9.13;4.70;;;20.90;90.60;;;;;;5095477;28;20038;-86
2023/10/02 10:16:18;;;;;;;9.38;4.85;;;20.90;90.60;;;;;;5094719;28;20027;-86
2023/10/02 10:21:56;;;;;;;8.57;4.28;;;21.00;90.70;;;;;;5095910;28;20051;-87
2023/10/02 10:27:41;;;;;;;15.63;5.45;;;21.00;90.60;;;;;;5085647;28;20020;-87
2023/10/02 10:30:24;;;;;;;16.83;5.80;;;21.10;90.60;;;;;;5074207;28;20108;-86
2023/10/02 10:35:35;;;;;;;18.20;5.05;;;21.10;90.50;;;;;;5075535;28;20368;-86
2023/10/02 10:38:22;;;;;;;16.30;5.53;;;21.00;90.50;;;;;;5074588;28;20608;-86
2023/10/02 10:41:00;;;;;;;15.80;5.57;;;21.10;90.50;;;;;;5075433;28;20055;-87
2023/10/02 10:46:27;;;;;;;13.68;5.20;;;21.10;90.70;;;;;;5066211;28;20039;-86
2023/10/02 10:49:10;;;;;;;14.93;5.03;;;21.10;90.80;;;;;;5083292;28;20021;-86
2023/10/02 10:51:39;;;;;;;14.90;5.22;;;21.20;91.30;;;;;;5084634;28;20114;-87
2023/10/02 10:54:12;;;;;;;13.70;4.57;;;21.20;92.00;;;;;;5095956;28;20031;-86
2023/10/02 10:56:44;;;;;;;16.42;5.30;;;21.40;92.10;;;;;;5093422;28;20024;-86
2023/10/02 10:59:22;;;;;;;12.35;4.88;;;21.40;91.90;;;;;;5094020;28;20043;-86
2023/10/02 11:02:09;;;;;;;11.60;4.93;;;21.50;91.50;;;;;;5093929;28;20486;-86
2023/10/02 11:04:39;;;;;;;17.30;5.18;;;21.60;91.40;;;;;;5094861;28;20030;-86
2023/10/02 11:07:19;;;;;;;13.75;5.18;;;21.60;91.40;;;;;;5093939;28;20397;-86
2023/10/02 11:10:14;;;;;;;15.15;5.10;;;21.70;91.30;;;;;;5093929;28;20428;-87
2023/10/02 11:12:37;;;;;;;14.40;5.45;;;21.70;91.20;;;;;;5094766;28;20022;-86
2023/10/02 11:15:15;;;;;;;13.05;5.18;;;21.70;91.00;;;;;;5094203;28;20024;-86
2023/10/02 11:17:42;;;;;;;12.07;5.20;;;21.70;91.10;;;;;;5093616;28;20020;-86
2023/10/02 11:20:08;;;;;;;14.57;4.82;;;21.60;91.20;;;;;;5093772;28;20485;-86
2023/10/02 11:22:51;;;;;;;16.30;5.53;;;21.60;91.30;;;;;;5094623;28;20027;-87
2023/10/02 11:25:19;;;;;;;13.75;5.07;;;21.60;91.40;;;;;;5091247;28;20038;-87
2023/10/02 11:27:58;;;;;;;12.93;5.10;;;21.50;91.30;;;;;;5076382;28;20486;-86
2023/10/02 11:30:31;;;;;;;10.00;4.75;;;21.50;91.40;;;;;;5073504;28;20025;-86
2023/10/02 11:33:04;;;;;;;11.63;5.05;;;21.50;91.40;;;;;;5073633;28;20078;-86
2023/10/02 11:35:37;;;;;;;11.68;5.18;;;21.40;91.30;;;;;;5073320;28;20407;-86
2023/10/02 11:38:04;;;;;;;10.95;4.80;;;21.40;91.40;;;;;;5073029;28;20024;-86
2023/10/02 11:40:29;;;;;;;13.35;5.15;;;21.40;91.40;;;;;;5074519;28;20032;-86
2023/10/02 11:42:59;;;;;;;10.77;4.90;;;21.40;91.40;;;;;;5072961;28;20119;-86
2023/10/02 11:45:26;;;;;;;11.23;4.93;;;21.40;91.40;;;;;;5072505;28;20047;-86
2023/10/02 11:47:52;;;;;;;11.25;4.55;;;21.40;91.50;;;;;;5072523;28;20028;-86
2023/10/02 11:50:17;;;;;;;11.32;4.70;;;21.30;91.50;;;;;;5071825;28;20048;-86
2023/10/02 11:52:44;;;;;;;11.45;4.90;;;21.30;91.50;;;;;;5072605;28;20467;-86
2023/10/02 11:55:09;;;;;;;11.32;4.50;;;21.30;91.50;;;;;;5072715;28;20035;-86
2023/10/02 11:57:37;;;;;;;10.55;4.70;;;21.30;91.50;;;;;;5072425;28;20025;-86
2023/10/02 12:00:08;;;;;;;15.32;4.72;;;21.30;91.60;;;;;;5072436;28;20494;-86
2023/10/02 12:02:34;;;;;;;12.02;4.47;;;21.20;91.50;;;;;;5073816;28;20024;-86
2023/10/02 12:05:00;;;;;;;12.25;4.70;;;21.20;91.50;;;;;;5072543;28;20385;-86
2023/10/02 12:07:25;;;;;;;9.77;4.38;;;21.20;91.60;;;;;;5072147;28;20030;-86
2023/10/02 12:09:53;;;;;;;12.05;4.60;;;21.20;91.60;;;;;;5072126;28;20394;-86
2023/10/02 12:12:19;;;;;;;11.13;4.30;;;21.20;91.70;;;;;;5072422;28;20111;-86
2023/10/02 12:14:45;;;;;;;11.07;4.57;;;21.20;91.60;;;;;;5071670;28;20465;-86
2023/10/02 12:17:14;;;;;;;8.88;4.00;;;21.20;91.60;;;;;;5073327;28;20025;-88
2023/10/02 12:19:41;;;;;;;10.23;4.13;;;21.20;91.60;;;;;;5073832;28;20070;-86
2023/10/02 12:22:07;;;;;;;9.80;4.13;;;21.20;91.60;;;;;;5072223;28;20028;-86
2023/10/02 12:24:34;;;;;;;10.85;4.85;;;21.20;91.60;;;;;;5073548;28;20027;-86
2023/10/02 12:27:00;;;;;;;11.07;4.40;;;21.20;91.60;;;;;;5071902;28;20017;-86
2023/10/02 12:29:25;;;;;;;9.15;4.10;;;21.20;91.50;;;;;;5073392;28;20032;-87
2023/10/02 12:31:52;;;;;;;10.98;4.80;;;21.10;91.50;;;;;;5072231;28;20021;-87
2023/10/02 12:34:19;;;;;;;10.18;4.53;;;21.10;91.50;;;;;;5071888;28;20019;-87
2023/10/02 12:36:45;;;;;;;9.38;4.22;;;21.10;91.60;;;;;;5071724;28;20021;-86
2023/10/02 12:39:13;;;;;;;9.60;4.25;;;21.10;91.60;;;;;;5072437;28;20425;-86
2023/10/02 12:41:41;;;;;;;10.05;4.68;;;21.10;91.60;;;;;;5072733;28;20561;-86
2023/10/02 12:44:07;;;;;;;10.27;4.38;;;21.10;91.60;;;;;;5072553;28;20024;-87
2023/10/02 12:46:33;;;;;;;9.20;4.28;;;21.20;91.70;;;;;;5073678;28;20024;-85
2023/10/02 12:49:00;;;;;;;10.88;4.53;;;21.00;91.60;;;;;;5072493;28;20372;-85
2023/10/02 12:51:28;;;;;;;10.82;4.47;;;21.00;91.60;;;;;;5071761;28;20086;-84
2023/10/02 12:53:53;;;;;;;10.25;4.07;;;21.10;91.70;;;;;;5071719;28;20027;-85
2023/10/02 12:56:21;;;;;;;9.70;4.43;;;21.00;91.70;;;;;;5071900;28;20024;-85
2023/10/02 12:58:48;;;;;;;10.20;4.45;;;21.00;91.70;;;;;;5072907;28;20012;-85
2023/10/02 13:01:15;;;;;;;11.20;4.10;;;21.00;91.80;;;;;;5071667;28;20040;-85
2023/10/02 13:03:43;;;;;;;9.65;4.00;;;21.00;91.90;;;;;;5071585;28;20024;-86
2023/10/02 13:06:13;;;;;;;10.13;3.92;;;21.00;91.80;;;;;;5071505;28;20111;-85
2023/10/02 13:08:43;;;;;;;9.85;4.45;;;21.00;91.80;;;;;;5071228;28;20024;-85
2023/10/02 13:11:12;;;;;;;11.07;4.28;;;21.10;91.80;;;;;;5071506;28;20032;-85
2023/10/02 13:13:39;;;;;;;9.55;4.13;;;21.10;91.80;;;;;;5071449;28;20021;-85
2023/10/02 13:16:05;;;;;;;9.20;4.18;;;21.00;91.80;;;;;;5072868;28;20024;-86
2023/10/02 13:18:30;;;;;;;10.02;3.75;;;21.00;91.80;;;;;;5078853;28;20016;-86
2023/10/02 13:20:58;;;;;;;9.88;3.92;;;21.00;91.80;;;;;;5077063;28;20078;-86
2023/10/02 13:23:25;;;;;;;10.38;4.20;;;21.00;91.80;;;;;;5073047;28;20029;-86
2023/10/02 13:25:50;;;;;;;8.35;4.28;;;21.00;91.90;;;;;;5072040;28;20513;-85
2023/10/02 13:28:16;;;;;;;12.85;4.57;;;20.90;91.80;;;;;;5075860;28;20060;-85
2023/10/02 13:30:42;;;;;;;10.48;3.85;;;20.90;91.80;;;;;;5075677;28;20090;-86
2023/10/02 13:33:08;;;;;;;9.40;4.25;;;20.90;91.80;;;;;;5075441;28;20103;-85
2023/10/02 13:35:38;;;;;;;9.13;4.00;;;20.90;91.90;;;;;;5075524;28;20471;-86
2023/10/02 13:38:04;;;;;;;8.82;4.03;;;20.90;91.90;;;;;;5075330;28;20024;-85
2023/10/02 13:40:32;;;;;;;10.70;4.40;;;20.90;91.90;;;;;;5075242;28;20021;-85
2023/10/02 13:42:59;;;;;;;10.18;3.92;;;20.90;91.90;;;;;;5075156;28;20040;-85
2023/10/02 13:45:25;;;;;;;8.82;3.63;;;20.90;91.90;;;;;;5075163;28;20067;-86
2023/10/02 13:47:54;;;;;;;9.55;4.32;;;20.90;91.90;;;;;;5074958;28;20024;-85
2023/10/02 13:50:19;;;;;;;8.38;3.60;;;20.90;91.90;;;;;;5075128;28;20021;-86
2023/10/02 13:52:45;;;;;;;9.60;3.90;;;20.90;91.90;;;;;;5076182;28;20025;-86
2023/10/02 13:55:19;;;;;;;8.48;3.90;;;20.90;92.00;;;;;;5075061;28;20052;-86
2023/10/02 13:57:52;;;;;;;8.75;3.80;;;20.80;91.90;;;;;;5076138;28;20154;-86
2023/10/02 14:00:20;;;;;;;9.13;3.90;;;20.90;91.90;;;;;;5074698;28;20036;-85
2023/10/02 14:02:51;;;;;;;8.93;3.78;;;20.90;91.90;;;;;;5074816;28;20029;-85
2023/10/02 14:05:18;;;;;;;9.25;3.88;;;20.90;91.80;;;;;;5074915;28;20028;-85
2023/10/02 14:07:45;;;;;;;9.55;4.03;;;20.90;91.80;;;;;;5074550;28;20039;-85
2023/10/02 14:10:13;;;;;;;7.10;3.50;;;20.90;91.80;;;;;;5074616;28;20025;-85
2023/10/02 14:12:42;;;;;;;8.88;4.00;;;20.80;91.80;;;;;;5074779;28;20495;-85
2023/10/02 14:15:13;;;;;;;8.10;3.92;;;20.80;91.80;;;;;;5075972;28;20023;-86
2023/10/02 14:17:39;;;;;;;8.05;3.60;;;20.80;91.90;;;;;;5074628;28;20028;-86
2023/10/02 14:20:11;;;;;;;8.45;3.78;;;20.80;91.90;;;;;;5074285;28;20040;-86
2023/10/02 14:22:37;;;;;;;7.97;3.75;;;20.80;91.90;;;;;;5074456;28;20028;-85
2023/10/02 14:25:06;;;;;;;8.00;3.55;;;20.80;91.90;;;;;;5074375;28;20033;-86
2023/10/02 14:27:32;;;;;;;6.85;3.42;;;20.80;92.00;;;;;;5075342;28;20029;-86
2023/10/02 14:29:57;;;;;;;7.32;3.42;;;20.80;92.00;;;;;;5074084;28;20394;-86
2023/10/02 14:32:23;;;;;;;8.10;3.60;;;20.80;92.00;;;;;;5074156;28;20035;-85
2023/10/02 14:34:52;;;;;;;8.45;3.47;;;20.80;92.00;;;;;;5073951;28;20107;-85
2023/10/02 14:37:18;;;;;;;7.57;3.70;;;20.80;92.00;;;;;;5078675;28;20031;-85